createdAt,value
2022-12-31T00:02:21.317Z,76.62
2022-12-31T00:04:49.017Z,76.68
2022-12-31T00:07:16.658Z,76.53
2022-12-31T00:09:44.881Z,76.71
2022-12-31T00:12:13.540Z,76.69
2022-12-31T00:14:41.076Z,76.50
2022-12-31T00:17:09.501Z,76.73
2022-12-31T00:19:38.797Z,76.83
2022-12-31T00:22:06.512Z,76.77
2022-12-31T00:24:35.690Z,76.91
2022-12-31T00:27:04.105Z,76.81
2022-12-31T00:29:32.107Z,76.77
2022-12-31T00:31:59.760Z,76.97
2022-12-31T00:34:29.052Z,76.88
2022-12-31T00:36:57.240Z,77.10
2022-12-31T00:39:26.720Z,76.96
2022-12-31T00:41:54.389Z,77.11
2022-12-31T00:44:23.786Z,77.02
2022-12-31T00:46:51.407Z,77.20
2022-12-31T00:49:45.891Z,77.16
2022-12-31T00:52:15.641Z,77.25
2022-12-31T00:54:45.632Z,77.23
2022-12-31T00:57:13.405Z,77.25
2022-12-31T00:59:41.084Z,77.47
2022-12-31T01:02:08.860Z,77.37
2022-12-31T01:04:37.122Z,77.41
2022-12-31T01:07:06.113Z,77.50
2022-12-31T01:09:35.302Z,77.33
2022-12-31T01:12:05.037Z,77.65
2022-12-31T01:14:33.633Z,77.60
2022-12-31T01:17:01.351Z,77.74
2022-12-31T01:19:31.485Z,77.50
2022-12-31T01:22:00.748Z,77.76
2022-12-31T01:24:28.529Z,77.84
2022-12-31T01:26:57.475Z,77.73
2022-12-31T01:29:26.904Z,78.00
2022-12-31T01:31:54.784Z,77.76
2022-12-31T01:34:23.961Z,77.67
2022-12-31T01:36:53.809Z,77.78
2022-12-31T01:39:23.391Z,78.14
2022-12-31T01:41:51.392Z,77.96
2022-12-31T01:44:27.138Z,78.14
2022-12-31T01:47:03.691Z,78.06
2022-12-31T01:50:24.991Z,78.04
2022-12-31T01:53:00.646Z,78.20
2022-12-31T01:56:02.395Z,78.49
2022-12-31T01:58:52.201Z,78.61
2022-12-31T02:01:30.727Z,78.40
2022-12-31T02:04:06.596Z,78.46
2022-12-31T02:06:47.191Z,78.69
2022-12-31T02:09:16.531Z,78.59
2022-12-31T02:11:45.939Z,78.62
2022-12-31T02:14:20.725Z,78.63
2022-12-31T02:17:07.496Z,78.54
2022-12-31T02:20:04.069Z,78.72
2022-12-31T02:23:04.753Z,78.54
2022-12-31T02:25:50.196Z,78.49
2022-12-31T02:28:51.364Z,78.52
2022-12-31T02:31:26.557Z,78.54
2022-12-31T02:34:24.180Z,78.58
2022-12-31T02:36:55.009Z,78.46
2022-12-31T02:39:23.102Z,78.54
2022-12-31T02:41:52.117Z,78.57
2022-12-31T02:44:30.847Z,78.43
2022-12-31T02:47:17.325Z,78.63
2022-12-31T02:54:11.837Z,78.63
2022-12-31T02:56:57.266Z,78.49
2022-12-31T02:59:58.035Z,78.77
2022-12-31T03:02:29.942Z,78.60
2022-12-31T03:05:01.217Z,78.83
2022-12-31T03:07:33.013Z,78.98
2022-12-31T03:10:01.720Z,78.66
2022-12-31T03:12:48.546Z,78.71
2022-12-31T03:15:28.671Z,78.91
2022-12-31T03:18:11.900Z,78.91
2022-12-31T03:21:05.059Z,78.97
2022-12-31T03:23:39.308Z,78.96
2022-12-31T03:26:10.576Z,78.72
2022-12-31T03:28:47.420Z,78.93
2022-12-31T03:31:19.012Z,79.13
2022-12-31T03:33:46.707Z,79.22
2022-12-31T03:36:15.229Z,79.14
2022-12-31T03:38:48.577Z,79.02
2022-12-31T03:41:20.150Z,79.10
2022-12-31T03:43:50.083Z,79.09
2022-12-31T03:46:17.801Z,79.27
2022-12-31T03:48:47.043Z,79.14
2022-12-31T03:51:16.443Z,79.11
2022-12-31T03:53:45.431Z,79.05
2022-12-31T03:56:13.104Z,79.12
2022-12-31T03:58:42.696Z,79.16
2022-12-31T04:01:13.845Z,79.27
2022-12-31T04:03:41.437Z,79.41
2022-12-31T04:06:09.064Z,79.29
2022-12-31T04:08:38.114Z,79.25
2022-12-31T04:11:06.716Z,79.25
2022-12-31T04:13:35.284Z,79.16
2022-12-31T04:16:03.810Z,79.30
2022-12-31T04:18:32.592Z,79.42
2022-12-31T04:21:04.786Z,79.56
2022-12-31T04:23:34.555Z,79.59
2022-12-31T04:26:02.701Z,79.48
2022-12-31T04:28:33.024Z,79.63
2022-12-31T04:31:00.620Z,79.85
2022-12-31T04:33:28.218Z,79.96
2022-12-31T04:36:09.225Z,79.59
2022-12-31T04:38:38.468Z,80.04
2022-12-31T04:41:19.394Z,80.28
2022-12-31T04:43:55.549Z,80.10
2022-12-31T04:46:28.969Z,80.53
2022-12-31T04:49:00.030Z,81.01
2022-12-31T04:52:45.523Z,80.61
2022-12-31T04:55:14.510Z,80.82
2022-12-31T04:57:42.161Z,80.78
2022-12-31T05:00:13.605Z,80.81
2022-12-31T05:02:42.122Z,81.22
2022-12-31T05:05:11.508Z,81.19
2022-12-31T05:07:40.101Z,81.30
2022-12-31T05:10:08.065Z,81.21
2022-12-31T05:12:35.673Z,81.04
2022-12-31T05:15:03.651Z,81.26
2022-12-31T05:17:31.446Z,81.16
2022-12-31T05:19:59.729Z,81.34
2022-12-31T05:22:31.335Z,81.31
2022-12-31T05:25:00.840Z,81.40
2022-12-31T05:27:32.638Z,81.51
2022-12-31T05:30:00.441Z,81.68
2022-12-31T05:32:28.378Z,81.69
2022-12-31T05:34:59.430Z,81.36
2022-12-31T05:37:29.997Z,81.46
2022-12-31T05:39:59.917Z,81.60
2022-12-31T05:42:30.633Z,81.89
2022-12-31T05:44:59.284Z,81.58
2022-12-31T05:47:27.770Z,81.73
2022-12-31T05:51:16.487Z,81.77
2022-12-31T05:53:44.154Z,81.83
2022-12-31T05:56:12.377Z,81.76
2022-12-31T05:58:39.979Z,81.51
2022-12-31T06:01:08.967Z,81.95
2022-12-31T06:03:36.646Z,82.00
2022-12-31T06:06:07.514Z,81.97
2022-12-31T06:08:37.645Z,82.07
2022-12-31T06:11:05.685Z,81.97
2022-12-31T06:13:33.384Z,81.83
2022-12-31T06:16:08.855Z,81.97
2022-12-31T06:18:37.154Z,81.86
2022-12-31T06:21:07.676Z,81.99
2022-12-31T06:23:37.359Z,81.97
2022-12-31T06:26:06.257Z,82.23
2022-12-31T06:28:34.831Z,82.07
2022-12-31T06:31:05.162Z,82.26
2022-12-31T06:33:34.773Z,82.28
2022-12-31T06:36:05.935Z,82.20
2022-12-31T06:38:36.855Z,82.07
2022-12-31T06:41:06.877Z,82.18
2022-12-31T06:43:35.376Z,82.35
2022-12-31T06:46:06.576Z,82.27
2022-12-31T06:48:34.602Z,82.48
2022-12-31T06:51:08.608Z,82.46
2022-12-31T06:53:43.390Z,82.62
2022-12-31T06:56:17.098Z,82.71
2022-12-31T06:58:47.593Z,82.61
2022-12-31T07:01:36.586Z,82.76
2022-12-31T07:04:43.584Z,82.58
2022-12-31T07:07:26.171Z,82.60
2022-12-31T07:10:14.267Z,82.56
2022-12-31T07:12:41.779Z,82.76
2022-12-31T07:15:47.489Z,82.77
2022-12-31T07:18:44.626Z,82.83
2022-12-31T07:21:16.489Z,82.81
2022-12-31T07:23:46.276Z,82.69
2022-12-31T07:26:28.429Z,83.02
2022-12-31T07:29:22.604Z,82.90
2022-12-31T07:32:16.550Z,83.05
2022-12-31T07:34:51.955Z,83.18
2022-12-31T07:37:51.398Z,83.09
2022-12-31T07:41:07.400Z,83.26
2022-12-31T07:43:47.145Z,83.18
2022-12-31T07:46:42.732Z,82.97
2022-12-31T07:49:14.805Z,83.02
2022-12-31T07:55:43.602Z,83.02
2022-12-31T07:58:49.362Z,83.09
2022-12-31T08:01:19.805Z,83.06
2022-12-31T08:04:01.394Z,82.87
2022-12-31T08:07:04.177Z,83.13
2022-12-31T08:09:49.681Z,83.19
2022-12-31T08:12:19.151Z,83.14
2022-12-31T08:14:48.228Z,83.17
2022-12-31T08:17:19.134Z,82.95
2022-12-31T08:19:47.246Z,83.05
2022-12-31T08:22:30.620Z,82.96
2022-12-31T08:25:16.465Z,83.06
2022-12-31T08:28:12.720Z,82.99
2022-12-31T08:31:15.612Z,82.72
2022-12-31T08:34:06.779Z,82.70
2022-12-31T08:36:56.397Z,82.60
2022-12-31T08:39:58.184Z,82.66
2022-12-31T08:42:43.334Z,82.66
2022-12-31T08:45:11.051Z,82.69
2022-12-31T08:47:59.799Z,82.88
2022-12-31T08:51:22.437Z,83.02
2022-12-31T08:53:52.738Z,82.95
2022-12-31T08:56:31.800Z,83.02
2022-12-31T08:59:40.824Z,82.81
2022-12-31T09:02:28.152Z,82.60
2022-12-31T09:05:26.486Z,82.57
2022-12-31T09:08:14.630Z,82.36
2022-12-31T09:10:50.863Z,82.10
2022-12-31T09:14:08.424Z,80.99
2022-12-31T09:17:09.086Z,81.00
2022-12-31T09:19:37.792Z,81.41
2022-12-31T09:22:06.712Z,81.98
2022-12-31T09:24:37.096Z,82.16
2022-12-31T09:27:10.604Z,82.42
2022-12-31T09:29:48.433Z,82.56
2022-12-31T09:32:41.166Z,82.81
2022-12-31T09:35:19.960Z,82.87
2022-12-31T09:37:52.401Z,82.96
2022-12-31T09:40:47.644Z,83.02
2022-12-31T09:43:36.748Z,83.07
2022-12-31T09:46:28.476Z,83.17
2022-12-31T09:49:19.679Z,83.18
2022-12-31T09:52:19.719Z,83.37
2022-12-31T09:55:23.436Z,83.39
2022-12-31T09:58:06.249Z,83.29
2022-12-31T10:00:52.551Z,83.33
2022-12-31T10:03:54.338Z,83.43
2022-12-31T10:06:43.620Z,83.26
2022-12-31T10:09:44.456Z,83.34
2022-12-31T10:12:49.700Z,83.30
2022-12-31T10:15:37.549Z,83.43
2022-12-31T10:18:29.027Z,83.38
2022-12-31T10:21:23.294Z,83.29
2022-12-31T10:24:19.725Z,83.39
2022-12-31T10:27:06.504Z,83.30
2022-12-31T10:30:13.344Z,83.33
2022-12-31T10:32:57.753Z,83.25
2022-12-31T10:35:50.455Z,83.23
2022-12-31T10:38:40.486Z,83.23
2022-12-31T10:41:54.395Z,83.19
2022-12-31T10:44:38.555Z,83.27
2022-12-31T10:47:54.091Z,83.30
2022-12-31T10:50:45.060Z,83.52
2022-12-31T10:53:31.053Z,83.52
2022-12-31T10:56:42.932Z,83.45
2022-12-31T10:59:53.866Z,83.44
2022-12-31T11:02:59.159Z,83.39
2022-12-31T11:06:05.271Z,83.39
2022-12-31T11:08:39.518Z,83.49
2022-12-31T11:11:31.702Z,83.39
2022-12-31T11:14:09.404Z,83.44
2022-12-31T11:16:52.565Z,83.64
2022-12-31T11:19:38.914Z,83.97
2022-12-31T11:22:50.286Z,83.91
2022-12-31T11:25:38.737Z,83.95
2022-12-31T11:28:28.004Z,84.11
2022-12-31T11:31:20.521Z,84.20
2022-12-31T11:34:17.822Z,84.28
2022-12-31T11:37:22.290Z,84.42
2022-12-31T11:40:21.295Z,84.40
2022-12-31T11:43:01.785Z,84.49
2022-12-31T11:45:53.838Z,84.59
2022-12-31T11:48:43.472Z,84.45
2022-12-31T11:51:17.828Z,84.60
2022-12-31T11:53:57.247Z,84.65
2022-12-31T11:56:29.728Z,84.86
2022-12-31T11:59:03.643Z,84.88
2022-12-31T12:02:00.534Z,84.94
2022-12-31T12:04:28.237Z,85.08
2022-12-31T12:06:57.487Z,85.16
2022-12-31T12:09:30.040Z,85.20
2022-12-31T12:12:00.473Z,85.17
2022-12-31T12:14:33.068Z,85.26
2022-12-31T12:17:05.760Z,85.40
2022-12-31T12:19:36.242Z,85.35
2022-12-31T12:22:25.880Z,85.49
2022-12-31T12:24:58.709Z,85.61
2022-12-31T12:27:31.601Z,85.51
2022-12-31T12:30:19.336Z,85.69
2022-12-31T12:33:02.056Z,85.82
2022-12-31T12:35:34.039Z,85.93
2022-12-31T12:38:07.552Z,86.04
2022-12-31T12:40:35.897Z,86.05
2022-12-31T12:43:04.300Z,86.09
2022-12-31T12:45:51.869Z,85.96
2022-12-31T12:48:31.476Z,85.95
2022-12-31T12:51:29.830Z,85.98
2022-12-31T12:54:18.214Z,86.03
2022-12-31T12:57:04.466Z,85.93
2022-12-31T12:59:48.687Z,86.02
2022-12-31T13:02:48.606Z,86.15
2022-12-31T13:05:28.208Z,86.37
2022-12-31T13:08:06.070Z,86.22
2022-12-31T13:10:48.418Z,86.19
2022-12-31T13:13:26.060Z,86.37
2022-12-31T13:16:22.375Z,86.40
2022-12-31T13:18:53.044Z,86.32
2022-12-31T13:21:21.136Z,86.38
2022-12-31T13:23:57.105Z,86.40
2022-12-31T13:26:40.878Z,86.25
2022-12-31T13:29:18.262Z,86.42
2022-12-31T13:31:50.199Z,86.37
2022-12-31T13:34:27.225Z,86.43
2022-12-31T13:36:58.494Z,86.41
2022-12-31T13:39:31.977Z,86.52
2022-12-31T13:42:03.764Z,86.47
2022-12-31T13:45:11.829Z,86.63
2022-12-31T13:47:45.978Z,86.56
2022-12-31T13:50:47.993Z,86.63
2022-12-31T13:53:31.599Z,86.70
2022-12-31T13:56:06.361Z,86.91
2022-12-31T13:59:30.287Z,87.04
2022-12-31T14:02:20.914Z,86.99
2022-12-31T14:04:56.157Z,86.80
2022-12-31T14:07:37.610Z,86.80
2022-12-31T14:10:16.248Z,86.90
2022-12-31T14:13:43.552Z,86.99
2022-12-31T14:16:46.768Z,86.86
2022-12-31T14:19:30.688Z,87.04
2022-12-31T14:22:13.729Z,87.05
2022-12-31T14:24:50.828Z,87.34
2022-12-31T14:27:26.052Z,87.46
2022-12-31T14:30:01.052Z,87.50
2022-12-31T14:32:37.519Z,87.48
2022-12-31T14:35:40.476Z,87.38
2022-12-31T14:38:47.638Z,87.26
2022-12-31T14:41:39.615Z,87.24
2022-12-31T14:44:38.859Z,87.27
2022-12-31T14:47:32.184Z,87.22
2022-12-31T14:50:34.775Z,87.60
2022-12-31T14:53:02.809Z,87.57
2022-12-31T14:55:41.489Z,87.29
2022-12-31T14:58:39.404Z,87.21
2022-12-31T15:01:24.772Z,87.22
2022-12-31T15:03:57.464Z,87.25
2022-12-31T15:07:00.769Z,87.25
2022-12-31T15:09:31.570Z,87.42
2022-12-31T15:12:42.897Z,87.32
2022-12-31T15:15:25.379Z,87.30
2022-12-31T15:18:16.718Z,87.50
2022-12-31T15:20:52.464Z,87.17
2022-12-31T15:23:25.545Z,87.28
2022-12-31T15:25:59.706Z,87.18
2022-12-31T15:28:39.411Z,87.23
2022-12-31T15:31:20.213Z,87.23
2022-12-31T15:34:05.089Z,87.16
2022-12-31T15:36:41.443Z,87.08
2022-12-31T15:39:11.489Z,86.99
2022-12-31T15:42:10.187Z,86.95
2022-12-31T15:44:59.587Z,87.01
2022-12-31T15:47:28.341Z,86.97
2022-12-31T15:50:02.263Z,86.85
2022-12-31T15:52:42.022Z,86.75
2022-12-31T15:55:25.084Z,86.80
2022-12-31T15:57:58.217Z,86.88
2022-12-31T16:00:35.330Z,86.69
2022-12-31T16:03:04.499Z,86.81
2022-12-31T16:05:35.612Z,86.76
2022-12-31T16:08:05.124Z,86.68
2022-12-31T16:10:34.549Z,86.64
2022-12-31T16:13:06.003Z,86.52
2022-12-31T16:15:35.201Z,86.68
2022-12-31T16:18:06.638Z,86.63
2022-12-31T16:20:42.990Z,86.50
2022-12-31T16:23:26.024Z,86.30
2022-12-31T16:25:59.789Z,86.30
2022-12-31T16:28:33.515Z,86.33
2022-12-31T16:31:03.497Z,86.20
2022-12-31T16:33:32.242Z,86.20
2022-12-31T16:36:01.859Z,86.29
2022-12-31T16:38:37.261Z,86.24
2022-12-31T16:41:40.845Z,86.31
2022-12-31T16:44:30.096Z,86.26
2022-12-31T16:47:04.645Z,86.11
2022-12-31T16:49:43.123Z,86.15
2022-12-31T16:52:44.744Z,86.05
2022-12-31T16:55:21.409Z,86.05
2022-12-31T16:57:55.427Z,86.01
2022-12-31T17:00:26.130Z,86.04
2022-12-31T17:03:21.289Z,85.92
2022-12-31T17:06:02.112Z,85.98
2022-12-31T17:09:25.262Z,85.98
2022-12-31T17:12:01.570Z,86.10
2022-12-31T17:14:30.181Z,85.99
2022-12-31T17:17:05.980Z,86.02
2022-12-31T17:19:45.031Z,86.01
2022-12-31T17:22:37.134Z,86.03
2022-12-31T17:25:22.713Z,86.03
2022-12-31T17:28:02.234Z,85.83
2022-12-31T17:30:33.429Z,85.98
2022-12-31T17:33:24.921Z,85.84
2022-12-31T17:36:12.981Z,86.03
2022-12-31T17:38:41.501Z,85.92
2022-12-31T17:41:28.438Z,86.03
2022-12-31T17:43:58.136Z,85.96
2022-12-31T17:46:28.368Z,85.84
2022-12-31T17:49:02.514Z,85.93
2022-12-31T17:51:59.411Z,85.78
2022-12-31T17:54:27.683Z,85.63
2022-12-31T17:56:55.755Z,85.70
2022-12-31T17:59:29.362Z,85.56
2022-12-31T18:02:00.345Z,85.47
2022-12-31T18:04:28.758Z,85.62
2022-12-31T18:06:58.062Z,85.49
2022-12-31T18:09:27.391Z,85.50
2022-12-31T18:12:01.411Z,85.42
2022-12-31T18:14:30.695Z,85.56
2022-12-31T18:17:01.825Z,85.44
2022-12-31T18:20:02.850Z,85.36
2022-12-31T18:22:18.592Z,85.44
2022-12-31T18:24:51.470Z,85.50
2022-12-31T18:27:23.026Z,85.23
2022-12-31T18:29:51.080Z,85.35
2022-12-31T18:32:29.058Z,85.31
2022-12-31T18:34:56.839Z,85.33
2022-12-31T18:37:28.008Z,85.27
2022-12-31T18:39:57.382Z,85.20
2022-12-31T18:42:28.263Z,85.15
2022-12-31T18:44:57.030Z,85.37
2022-12-31T18:47:25.070Z,85.25
2022-12-31T18:49:56.442Z,85.37
2022-12-31T18:52:25.591Z,85.19
2022-12-31T18:54:56.593Z,85.14
2022-12-31T18:57:24.689Z,85.09
2022-12-31T18:59:52.732Z,84.91
2022-12-31T19:02:21.102Z,84.94
2022-12-31T19:04:50.599Z,84.79
2022-12-31T19:07:18.317Z,84.78
2022-12-31T19:09:53.014Z,84.69
2022-12-31T19:12:25.755Z,84.67
2022-12-31T19:14:56.314Z,84.81
2022-12-31T19:17:25.489Z,84.78
2022-12-31T19:19:57.338Z,84.80
2022-12-31T19:22:25.643Z,84.63
2022-12-31T19:24:54.146Z,84.90
2022-12-31T19:27:23.811Z,84.74
2022-12-31T19:29:52.097Z,84.78
2022-12-31T19:32:20.418Z,84.84
2022-12-31T19:34:52.658Z,84.81
2022-12-31T19:37:21.565Z,84.95
2022-12-31T19:39:50.242Z,84.72
2022-12-31T19:42:20.344Z,84.87
2022-12-31T19:44:48.996Z,84.87
2022-12-31T19:47:16.894Z,84.76
2022-12-31T19:49:46.396Z,84.73
2022-12-31T19:52:18.302Z,84.76
2022-12-31T19:54:46.910Z,84.75
2022-12-31T19:57:16.843Z,84.86
2022-12-31T19:59:47.965Z,84.73
2022-12-31T20:02:19.523Z,84.73
2022-12-31T20:04:49.391Z,84.66
2022-12-31T20:07:20.895Z,84.63
2022-12-31T20:09:53.408Z,84.66
2022-12-31T20:12:21.260Z,84.62
2022-12-31T20:14:51.842Z,84.75
2022-12-31T20:17:20.888Z,84.66
2022-12-31T20:19:49.581Z,84.89
2022-12-31T20:22:18.109Z,84.69
2022-12-31T20:24:46.295Z,84.70
2022-12-31T20:27:18.553Z,84.74
2022-12-31T20:29:47.131Z,84.81
2022-12-31T20:32:15.254Z,84.72
2022-12-31T20:34:43.727Z,84.93
2022-12-31T20:37:15.347Z,84.77
2022-12-31T20:39:43.869Z,84.97
2022-12-31T20:42:12.126Z,84.86
2022-12-31T20:44:41.592Z,84.80
2022-12-31T20:47:10.091Z,84.96
2022-12-31T20:50:10.872Z,84.96
2022-12-31T20:52:38.655Z,84.83
2022-12-31T20:55:07.869Z,84.77
2022-12-31T20:57:37.179Z,84.80
2022-12-31T21:00:07.729Z,84.67
2022-12-31T21:02:42.516Z,84.73
2022-12-31T21:05:12.563Z,84.75
2022-12-31T21:07:43.312Z,84.79
2022-12-31T21:10:11.799Z,84.80
2022-12-31T21:12:45.096Z,84.69
2022-12-31T21:15:14.457Z,84.67
2022-12-31T21:17:43.042Z,84.81
2022-12-31T21:20:13.084Z,84.78
2022-12-31T21:22:41.504Z,84.89
2022-12-31T21:25:13.273Z,84.67
2022-12-31T21:27:41.110Z,84.57
2022-12-31T21:30:19.595Z,84.47
2022-12-31T21:32:49.015Z,84.54
2022-12-31T21:38:07.550Z,84.45
2022-12-31T21:40:36.129Z,84.39
2022-12-31T21:43:04.825Z,84.38
2022-12-31T21:45:33.301Z,84.18
2022-12-31T21:48:20.281Z,84.28
2022-12-31T21:51:58.748Z,84.41
2022-12-31T21:54:46.850Z,84.37
2022-12-31T21:57:16.247Z,84.14
2022-12-31T22:00:39.765Z,83.93
2022-12-31T22:03:10.382Z,84.11
2022-12-31T22:05:51.074Z,84.07
2022-12-31T22:08:20.969Z,84.22
2022-12-31T22:10:52.749Z,84.25
2022-12-31T22:13:23.581Z,84.24
2022-12-31T22:15:58.746Z,84.09
2022-12-31T22:18:32.030Z,84.03
2022-12-31T22:21:02.944Z,83.93
2022-12-31T22:23:32.442Z,83.80
2022-12-31T22:26:02.383Z,83.84
2022-12-31T22:28:39.481Z,83.76
2022-12-31T22:31:36.715Z,83.78
2022-12-31T22:34:04.607Z,83.62
2022-12-31T22:36:32.875Z,83.69
2022-12-31T22:39:00.642Z,83.67
2022-12-31T22:41:31.121Z,83.52
2022-12-31T22:44:04.034Z,83.61
2022-12-31T22:46:33.496Z,83.40
2022-12-31T22:49:03.125Z,83.31
2022-12-31T22:52:04.196Z,83.21
2022-12-31T22:54:37.786Z,83.09
2022-12-31T22:57:07.196Z,83.01
2022-12-31T22:59:36.546Z,83.21
2022-12-31T23:02:07.931Z,83.02
2022-12-31T23:04:41.722Z,82.97
2022-12-31T23:07:16.802Z,82.98
2022-12-31T23:10:03.323Z,82.85
2022-12-31T23:12:32.365Z,83.03
2022-12-31T23:15:18.847Z,82.91
2022-12-31T23:18:05.194Z,82.93
2022-12-31T23:20:52.131Z,83.01
2022-12-31T23:23:20.458Z,83.00
2022-12-31T23:25:51.178Z,82.78
2022-12-31T23:28:22.092Z,82.86
2022-12-31T23:30:51.876Z,83.00
2022-12-31T23:33:22.946Z,82.64
2022-12-31T23:36:01.015Z,82.79
2022-12-31T23:38:28.838Z,82.74
2022-12-31T23:40:57.557Z,82.72
2022-12-31T23:43:26.941Z,82.65
2022-12-31T23:45:54.595Z,82.55
2022-12-31T23:48:22.799Z,82.60
2022-12-31T23:51:21.305Z,82.48
2022-12-31T23:53:51.250Z,82.59
2022-12-31T23:56:24.151Z,82.58
2022-12-31T23:58:58.260Z,82.47
